Terminal Aerodrome Forecast
Issued by NWS Cleveland, OH

Home | Current Version | Previous Version | Graphics & Text | Print | Product List | Glossary On
Versions: 1 2 3 4 5 6 7 8 9 10 11 12 13 14 15 16 17 18 19 20 21 22 23
000
FTUS41 KCLE 301100
TAFMFD
TAF
KMFD 301120Z 3012/3112 19010KT P6SM BKN250
     FM301500 19010G20KT P6SM SCT060 BKN120
     FM302000 20015G24KT P6SM VCTS BKN060CB
     FM310200 20011KT P6SM OVC050
     FM310900 22008KT 4SM -TSRA BR OVC025CB=

USA.gov is the U.S. government's official web portal to all federal, state and local government web resources and services.